createdAt,value
2019-04-11T00:00:11.343Z,97530.36
2019-04-11T00:03:19.493Z,97533.55
2019-04-11T00:06:27.679Z,97534.78
2019-04-11T00:09:35.559Z,97534.78
2019-04-11T00:12:43.302Z,97538.48
2019-04-11T00:15:50.880Z,97538.22
2019-04-11T00:18:58.864Z,97542.72
2019-04-11T00:22:06.303Z,97547.52
2019-04-11T00:25:13.617Z,97547.47
2019-04-11T00:28:21.600Z,97550.62
2019-04-11T00:31:28.996Z,97551.62
2019-04-11T00:34:37.556Z,97553.41
2019-04-11T00:37:45.416Z,97557.09
2019-04-11T00:40:54.312Z,97552.48
2019-04-11T00:44:01.590Z,97552.48
2019-04-11T00:47:08.931Z,97560.11
2019-04-11T00:50:16.089Z,97560.11
2019-04-11T00:53:24.049Z,97565.16
2019-04-11T00:56:32.440Z,97558.02
2019-04-11T00:59:42.413Z,97548.44
2019-04-11T01:02:50.718Z,97557.59
2019-04-11T01:05:58.270Z,97558.38
2019-04-11T01:09:06.285Z,97557.77
2019-04-11T01:12:13.368Z,97555.58
2019-04-11T01:15:21.882Z,97556.88
2019-04-11T01:18:29.883Z,97562.16
2019-04-11T01:21:38.071Z,97555.11
2019-04-11T01:24:46.058Z,97555.78
2019-04-11T01:27:54.282Z,97564.27
2019-04-11T01:31:03.228Z,97560.23
2019-04-11T01:34:12.682Z,97564.43
2019-04-11T01:37:19.770Z,97564.43
2019-04-11T01:40:28.345Z,97562.72
2019-04-11T01:43:35.771Z,97554.53
2019-04-11T01:46:44.383Z,97554.53
2019-04-11T01:49:52.487Z,97573.88
2019-04-11T01:53:00.534Z,97578.02
2019-04-11T01:56:09.357Z,97576.65
2019-04-11T01:59:17.422Z,97564.19
2019-04-11T02:02:30.587Z,97574.60
2019-04-11T02:05:38.255Z,97574.60
2019-04-11T02:08:45.272Z,97576.85
2019-04-11T02:11:52.417Z,97582.44
2019-04-11T02:14:59.798Z,97577.06
2019-04-11T02:18:07.592Z,97580.77
2019-04-11T02:21:15.669Z,97588.77
2019-04-11T02:24:30.596Z,97593.75
2019-04-11T02:27:40.184Z,97582.84
2019-04-11T02:30:51.398Z,97582.84
2019-04-11T02:34:01.690Z,97599.36
2019-04-11T02:37:09.403Z,97604.59
2019-04-11T02:40:17.792Z,97604.59
2019-04-11T02:43:25.881Z,97602.14
2019-04-11T02:46:42.802Z,97605.57
2019-04-11T02:49:43.654Z,97607.33
2019-04-11T02:52:52.122Z,97610.51
2019-04-11T02:56:02.638Z,97612.36
2019-04-11T02:59:09.090Z,97610.59
2019-04-11T03:02:19.259Z,97614.88
2019-04-11T03:05:26.795Z,97617.03
2019-04-11T03:08:36.368Z,97619.20
2019-04-11T03:11:43.102Z,97616.73
2019-04-11T03:15:10.896Z,97622.88
2019-04-11T03:18:02.900Z,97626.58
2019-04-11T03:21:14.451Z,97605.93
2019-04-11T03:24:18.251Z,97622.77
2019-04-11T03:27:28.792Z,97625.48
2019-04-11T03:30:57.349Z,97625.48
2019-04-11T03:40:29.085Z,97639.91
2019-04-11T03:43:28.021Z,97639.46
2019-04-11T03:46:40.180Z,97639.46
2019-04-11T03:49:40.905Z,97646.13
2019-04-11T03:52:40.895Z,97651.13
2019-04-11T03:55:49.455Z,97644.34
2019-04-11T03:58:57.805Z,97654.33
2019-04-11T04:02:06.426Z,97645.55
2019-04-11T04:05:17.589Z,97645.55
2019-04-11T04:08:26.812Z,97660.83
2019-04-11T04:11:34.728Z,97667.59
2019-04-11T04:15:01.422Z,97671.02
2019-04-11T04:18:15.043Z,97671.02
2019-04-11T04:21:40.824Z,97679.72
2019-04-11T04:24:49.786Z,97688.06
2019-04-11T04:27:58.859Z,97690.06
2019-04-11T04:31:07.040Z,97701.59
2019-04-11T04:34:15.498Z,97699.53
2019-04-11T04:37:24.729Z,97698.83
2019-04-11T04:40:50.044Z,97702.30
2019-04-11T04:43:41.393Z,97709.02
2019-04-11T04:47:00.007Z,97713.64
2019-04-11T04:49:59.337Z,97725.38
2019-04-11T04:53:07.456Z,97735.63
2019-04-11T04:56:20.103Z,97735.69
2019-04-11T04:59:25.582Z,97735.02
2019-04-11T05:02:34.861Z,97735.28
2019-04-11T05:05:42.224Z,97735.28
2019-04-11T05:08:49.362Z,97736.11
2019-04-11T05:11:56.998Z,97738.41
2019-04-11T05:15:04.741Z,97738.41
2019-04-11T05:18:12.112Z,97734.22
2019-04-11T05:21:21.355Z,97738.41
2019-04-11T05:24:28.588Z,97745.53
2019-04-11T05:27:35.803Z,97731.66
2019-04-11T05:30:45.330Z,97731.66
2019-04-11T05:33:53.825Z,97751.17
2019-04-11T05:37:01.946Z,97743.10
2019-04-11T05:40:09.274Z,97749.86
2019-04-11T05:43:16.304Z,97749.86
2019-04-11T05:46:32.674Z,97757.27
2019-04-11T05:49:40.831Z,97761.28
2019-04-11T05:52:48.072Z,97756.98
2019-04-11T05:55:57.448Z,97762.16
2019-04-11T05:59:19.812Z,97750.48
2019-04-11T06:02:41.673Z,97750.48
2019-04-11T06:06:04.695Z,97754.38
2019-04-11T06:09:16.127Z,97757.88
2019-04-11T06:12:24.148Z,97751.16
2019-04-11T06:15:36.239Z,97756.00
2019-04-11T06:19:00.515Z,97754.14
2019-04-11T06:22:10.538Z,97761.64
2019-04-11T06:25:30.892Z,97761.64
2019-04-11T06:28:38.264Z,97758.70
2019-04-11T06:32:03.614Z,97748.86
2019-04-11T06:35:13.578Z,97726.78
2019-04-11T06:38:30.397Z,97747.22
2019-04-11T06:41:39.583Z,97734.29
2019-04-11T06:44:50.118Z,97734.29
2019-04-11T06:48:11.580Z,97754.22
2019-04-11T06:51:24.258Z,97758.23
2019-04-11T06:54:39.296Z,97756.10
2019-04-11T06:57:51.612Z,97764.95
2019-04-11T07:01:01.304Z,97764.95
2019-04-11T07:04:11.409Z,97762.23
2019-04-11T07:07:18.658Z,97765.20
2019-04-11T07:10:30.677Z,97772.97
2019-04-11T07:13:49.710Z,97767.04
2019-04-11T07:17:15.483Z,97768.66
2019-04-11T07:20:41.402Z,97768.08
2019-04-11T07:24:16.327Z,97765.11
2019-04-11T07:27:23.785Z,97772.28
2019-04-11T07:30:50.870Z,97781.70
2019-04-11T07:34:16.944Z,97777.81
2019-04-11T07:37:36.684Z,97784.52
2019-04-11T07:40:50.197Z,97780.12
2019-04-11T07:44:00.678Z,97775.89
2019-04-11T07:47:17.180Z,97775.26
2019-04-11T07:50:19.514Z,97766.76
2019-04-11T07:53:28.539Z,97775.74
2019-04-11T07:56:41.904Z,97775.74
2019-04-11T07:59:51.319Z,97777.88
2019-04-11T08:03:02.222Z,97777.88
2019-04-11T08:06:11.112Z,97782.20
2019-04-11T08:09:27.304Z,97788.69
2019-04-11T08:12:37.246Z,97772.44
2019-04-11T08:16:02.177Z,97768.81
2019-04-11T08:19:29.044Z,97769.86
2019-04-11T08:22:37.721Z,97771.14
2019-04-11T08:26:03.972Z,97765.41
2019-04-11T08:29:14.057Z,97781.04
2019-04-11T08:32:23.269Z,97771.64
2019-04-11T08:35:36.556Z,97773.88
2019-04-11T08:38:44.709Z,97778.59
2019-04-11T08:42:10.099Z,97783.41
2019-04-11T08:45:19.624Z,97775.73
2019-04-11T08:48:28.911Z,97788.56
2019-04-11T08:51:36.921Z,97782.06
2019-04-11T08:54:46.127Z,97793.34
2019-04-11T08:57:56.074Z,97790.75
2019-04-11T09:01:07.461Z,97792.59
2019-04-11T09:04:18.437Z,97794.50
2019-04-11T09:07:43.576Z,97796.76
2019-04-11T09:11:08.986Z,97785.25
2019-04-11T09:14:34.307Z,97785.90
2019-04-11T09:17:54.904Z,97785.90
2019-04-11T09:21:10.393Z,97783.05
2019-04-11T09:24:22.281Z,97792.30
2019-04-11T09:27:47.114Z,97793.75
2019-04-11T09:30:57.000Z,97777.93
2019-04-11T09:34:09.553Z,97769.98
2019-04-11T09:37:19.203Z,97767.48
2019-04-11T09:40:36.180Z,97767.48
2019-04-11T09:43:44.361Z,97787.67
2019-04-11T09:47:05.895Z,97789.47
2019-04-11T09:50:18.251Z,97788.02
2019-04-11T09:53:26.317Z,97790.30
2019-04-11T09:56:36.379Z,97793.19
2019-04-11T09:59:47.682Z,97782.74
2019-04-11T10:02:58.548Z,97788.24
2019-04-11T10:06:16.994Z,97793.41
2019-04-11T10:09:26.128Z,97790.61
2019-04-11T10:12:54.128Z,97788.50
2019-04-11T10:16:13.138Z,97778.16
2019-04-11T10:19:24.479Z,97782.94
2019-04-11T10:22:32.110Z,97785.77
2019-04-11T10:25:40.735Z,97785.77
2019-04-11T10:28:51.663Z,97781.38
2019-04-11T10:32:01.070Z,97791.91
2019-04-11T10:35:18.432Z,97777.97
2019-04-11T10:38:26.614Z,97773.82
2019-04-11T10:41:33.615Z,97773.82
2019-04-11T10:44:58.826Z,97784.25
2019-04-11T10:48:06.928Z,97774.36
2019-04-11T10:51:33.760Z,97805.16
2019-04-11T10:54:42.919Z,97789.13
2019-04-11T10:57:52.140Z,97788.52
2019-04-11T11:01:05.718Z,97785.09
2019-04-11T11:04:18.024Z,97786.89
2019-04-11T11:07:26.749Z,97776.09
2019-04-11T11:10:35.961Z,97770.24
2019-04-11T11:14:02.325Z,97796.02
2019-04-11T11:17:47.147Z,97776.91
2019-04-11T11:20:55.039Z,97759.95
2019-04-11T11:24:07.185Z,97767.91
2019-04-11T11:27:14.261Z,97784.86
2019-04-11T11:30:27.943Z,97781.66
2019-04-11T11:33:36.337Z,97790.73
2019-04-11T11:36:54.717Z,97795.41
2019-04-11T11:40:07.749Z,97795.41
2019-04-11T11:43:14.827Z,97780.45
2019-04-11T11:46:31.533Z,97786.29
2019-04-11T11:49:48.796Z,97763.84
2019-04-11T11:52:53.202Z,97802.62
2019-04-11T11:56:02.111Z,97804.74
2019-04-11T11:59:11.380Z,97803.70
2019-04-11T12:02:23.546Z,97777.97
2019-04-11T12:05:33.049Z,97777.97
2019-04-11T12:09:00.326Z,97794.75
2019-04-11T12:12:11.420Z,97796.90
2019-04-11T12:15:35.069Z,97795.99
2019-04-11T12:18:49.787Z,97770.82
2019-04-11T12:21:55.944Z,97770.82
2019-04-11T12:25:05.462Z,97786.66
2019-04-11T12:28:27.688Z,97793.83
2019-04-11T12:31:37.221Z,97812.12
2019-04-11T12:34:55.781Z,97800.35
2019-04-11T12:38:09.670Z,97806.09
2019-04-11T12:41:26.038Z,97806.09
2019-04-11T12:44:51.283Z,97784.40
2019-04-11T12:47:58.860Z,97798.44
2019-04-11T12:51:13.005Z,97791.45
2019-04-11T12:54:23.536Z,97798.70
2019-04-11T12:57:43.290Z,97765.58
2019-04-11T13:01:09.802Z,97765.58
2019-04-11T13:04:27.521Z,97780.66
2019-04-11T13:07:37.362Z,97780.57
2019-04-11T13:10:47.701Z,97780.57
2019-04-11T13:14:09.083Z,97787.62
2019-04-11T13:17:28.750Z,97786.22
2019-04-11T13:20:46.342Z,97795.87
2019-04-11T13:23:56.339Z,97797.47
2019-04-11T13:27:15.430Z,97800.84
2019-04-11T13:30:22.640Z,97809.98
2019-04-11T13:33:30.245Z,97797.64
2019-04-11T13:36:43.772Z,97812.90
2019-04-11T13:39:55.630Z,97810.11
2019-04-11T13:43:18.606Z,97804.72
2019-04-11T13:46:35.918Z,97777.06
2019-04-11T13:49:44.670Z,97777.06
2019-04-11T13:52:53.506Z,97794.66
2019-04-11T13:56:01.059Z,97788.41
2019-04-11T13:59:10.339Z,97791.34
2019-04-11T14:02:19.492Z,97794.11
2019-04-11T14:05:28.964Z,97766.17
2019-04-11T14:08:40.386Z,97766.17
2019-04-11T14:11:48.498Z,97794.36
2019-04-11T14:14:56.613Z,97796.31
2019-04-11T14:18:26.098Z,97799.55
2019-04-11T14:21:33.683Z,97803.47
2019-04-11T14:24:45.796Z,97787.30
2019-04-11T14:27:54.716Z,97788.98
2019-04-11T14:31:05.349Z,97794.20
2019-04-11T14:34:14.004Z,97795.19
2019-04-11T14:37:38.287Z,97794.27
2019-04-11T14:40:44.566Z,97793.31
2019-04-11T14:43:56.732Z,97799.89
2019-04-11T14:47:24.339Z,97799.89
2019-04-11T14:50:40.590Z,97797.05
2019-04-11T14:54:00.774Z,97796.72
2019-04-11T14:57:13.548Z,97809.48
2019-04-11T15:00:24.136Z,97796.20
2019-04-11T15:03:38.311Z,97796.20
2019-04-11T15:06:49.507Z,97820.75
2019-04-11T15:09:59.408Z,97816.10
2019-04-11T15:13:10.480Z,97819.34
2019-04-11T15:16:19.913Z,97804.94
2019-04-11T15:19:28.373Z,97820.75
2019-04-11T15:22:48.331Z,97838.03
2019-04-11T15:26:08.854Z,97819.45
2019-04-11T15:29:18.931Z,97825.38
2019-04-11T15:32:29.338Z,97825.48
2019-04-11T15:35:36.633Z,97825.48
2019-04-11T15:38:52.768Z,97832.30
2019-04-11T15:42:02.500Z,97829.45
2019-04-11T15:45:14.552Z,97840.20
2019-04-11T15:48:41.749Z,97837.34
2019-04-11T15:51:50.938Z,97829.81
2019-04-11T15:55:16.270Z,97827.61
2019-04-11T15:58:25.023Z,97830.41
2019-04-11T16:01:52.579Z,97828.91
2019-04-11T16:05:01.934Z,97822.59
2019-04-11T16:08:27.614Z,97831.08
2019-04-11T16:11:43.357Z,97832.06
2019-04-11T16:15:09.282Z,97836.81
2019-04-11T16:18:20.710Z,97833.55
2019-04-11T16:21:43.305Z,97829.81
2019-04-11T16:25:04.463Z,97823.44
2019-04-11T16:28:12.076Z,97827.06
2019-04-11T16:31:19.359Z,97827.06
2019-04-11T16:34:48.332Z,97826.06
2019-04-11T16:37:53.271Z,97830.27
2019-04-11T16:41:18.623Z,97835.71
2019-04-11T16:44:30.829Z,97846.79
2019-04-11T16:47:57.256Z,97846.79
2019-04-11T16:51:05.900Z,97847.20
2019-04-11T16:54:13.589Z,97847.28
2019-04-11T16:57:20.917Z,97841.42
2019-04-11T17:00:29.733Z,97841.09
2019-04-11T17:03:37.024Z,97852.31
2019-04-11T17:06:46.725Z,97852.31
2019-04-11T17:09:59.552Z,97850.23
2019-04-11T17:13:07.841Z,97855.03
2019-04-11T17:16:16.272Z,97850.27
2019-04-11T17:19:24.384Z,97863.95
2019-04-11T17:22:32.115Z,97858.87
2019-04-11T17:25:39.455Z,97860.52
2019-04-11T17:28:47.004Z,97862.56
2019-04-11T17:31:56.076Z,97872.76
2019-04-11T17:35:03.685Z,97859.27
2019-04-11T17:38:11.344Z,97871.49
2019-04-11T17:41:18.518Z,97871.49
2019-04-11T17:44:24.655Z,97874.80
2019-04-11T17:47:33.194Z,97883.98
2019-04-11T17:50:40.879Z,97878.84
2019-04-11T17:53:48.606Z,97882.36
2019-04-11T17:56:58.948Z,97888.72
2019-04-11T18:00:09.654Z,97888.72
2019-04-11T18:03:17.275Z,97885.23
2019-04-11T18:06:24.315Z,97887.25
2019-04-11T18:09:32.354Z,97889.36
2019-04-11T18:12:45.890Z,97898.86
2019-04-11T18:15:54.488Z,97892.94
2019-04-11T18:19:05.839Z,97885.13
2019-04-11T18:22:13.705Z,97890.53
2019-04-11T18:25:21.624Z,97901.03
2019-04-11T18:28:31.348Z,97904.59
2019-04-11T18:31:38.924Z,97911.09
2019-04-11T18:34:46.339Z,97911.09
2019-04-11T18:37:54.267Z,97924.88
2019-04-11T18:41:01.949Z,97923.05
2019-04-11T18:44:09.438Z,97921.17
2019-04-11T18:47:19.522Z,97933.89
2019-04-11T18:50:29.046Z,97919.98
2019-04-11T18:53:37.410Z,97919.98
2019-04-11T18:56:44.910Z,97938.28
2019-04-11T18:59:51.951Z,97932.38
2019-04-11T19:02:59.124Z,97937.25
2019-04-11T19:06:06.378Z,97942.37
2019-04-11T19:09:16.585Z,97946.70
2019-04-11T19:12:24.524Z,97937.05
2019-04-11T19:15:31.767Z,97937.05
2019-04-11T19:18:39.369Z,97951.59
2019-04-11T19:21:50.774Z,97947.25
2019-04-11T19:24:57.097Z,97949.89
2019-04-11T19:28:05.820Z,97960.75
2019-04-11T19:31:13.949Z,97951.30
2019-04-11T19:34:21.999Z,97953.25
2019-04-11T19:37:30.457Z,97951.66
2019-04-11T19:40:40.591Z,97950.56
2019-04-11T19:43:49.326Z,97951.37
2019-04-11T19:46:57.437Z,97953.58
2019-04-11T19:50:06.453Z,97956.30
2019-04-11T19:53:15.774Z,97954.66
2019-04-11T19:56:38.376Z,97954.65
2019-04-11T19:59:45.497Z,97950.08
2019-04-11T20:02:54.766Z,97950.89
2019-04-11T20:06:03.266Z,97946.59
2019-04-11T20:09:10.703Z,97947.38
2019-04-11T20:12:20.264Z,97953.58
2019-04-11T20:15:36.677Z,97957.40
2019-04-11T20:18:36.703Z,97957.13
2019-04-11T20:21:44.480Z,97959.63
2019-04-11T20:24:51.125Z,97958.55
2019-04-11T20:27:58.564Z,97954.51
2019-04-11T20:31:06.158Z,97956.44
2019-04-11T20:34:26.597Z,97956.44
2019-04-11T20:37:24.491Z,97961.80
2019-04-11T20:40:33.505Z,97956.41
2019-04-11T20:43:43.271Z,97952.92
2019-04-11T20:46:49.857Z,97937.88
2019-04-11T20:50:06.963Z,97955.39
2019-04-11T20:53:12.911Z,97964.31
2019-04-11T20:56:24.088Z,97958.39
2019-04-11T20:59:34.463Z,97967.59
2019-04-11T21:02:36.566Z,97954.64
2019-04-11T21:05:44.428Z,97964.63
2019-04-11T21:08:51.670Z,97964.59
2019-04-11T21:11:59.643Z,97962.70
2019-04-11T21:15:10.268Z,97961.36
2019-04-11T21:18:17.666Z,97958.67
2019-04-11T21:21:25.233Z,97952.47
2019-04-11T21:24:33.404Z,97952.73
2019-04-11T21:27:40.480Z,97955.71
2019-04-11T21:30:48.506Z,97954.38
2019-04-11T21:33:56.079Z,97935.25
2019-04-11T21:37:03.452Z,97935.25
2019-04-11T21:40:12.441Z,97950.11
2019-04-11T21:43:19.941Z,97950.11
2019-04-11T21:46:27.583Z,97955.49
2019-04-11T21:49:37.031Z,97958.73
2019-04-11T21:52:45.235Z,97960.05
2019-04-11T21:55:52.349Z,97961.95
2019-04-11T21:58:59.525Z,97962.25
2019-04-11T22:02:07.860Z,97962.25
2019-04-11T22:05:15.306Z,97965.20
2019-04-11T22:08:22.292Z,97963.03
2019-04-11T22:11:29.353Z,97952.50
2019-04-11T22:14:39.164Z,97964.63
2019-04-11T22:17:45.473Z,97960.59
2019-04-11T22:20:53.306Z,97960.32
2019-04-11T22:24:00.447Z,97959.81
2019-04-11T22:27:07.952Z,97949.05
2019-04-11T22:30:17.346Z,97949.05
2019-04-11T22:33:27.734Z,97949.30
2019-04-11T22:36:35.368Z,97946.34
2019-04-11T22:39:42.773Z,97946.09
2019-04-11T22:42:49.598Z,97945.30
2019-04-11T22:45:57.281Z,97930.51
2019-04-11T22:49:04.296Z,97930.51
2019-04-11T22:52:11.599Z,97942.87
2019-04-11T22:55:19.352Z,97950.98
2019-04-11T22:58:26.426Z,97955.56
2019-04-11T23:01:34.012Z,97952.09
2019-04-11T23:04:41.127Z,97954.78
2019-04-11T23:07:49.023Z,97952.33
2019-04-11T23:10:56.301Z,97948.05
2019-04-11T23:14:02.492Z,97960.70
2019-04-11T23:17:09.585Z,97947.77
2019-04-11T23:20:16.801Z,97939.41
2019-04-11T23:23:24.006Z,97939.41
2019-04-11T23:26:31.485Z,97953.41
2019-04-11T23:29:39.386Z,97957.45
2019-04-11T23:32:45.625Z,97953.95
2019-04-11T23:35:52.673Z,97961.78
2019-04-11T23:38:59.900Z,97961.78
2019-04-11T23:42:07.482Z,97958.01
2019-04-11T23:45:16.229Z,97964.73
2019-04-11T23:48:24.626Z,97959.89
2019-04-11T23:51:32.323Z,97958.30
2019-04-11T23:54:40.251Z,97962.59
2019-04-11T23:57:47.337Z,97967.73
